Accueil
METAR-TAF:

METAR-TAF

Aéroports :

Shawbury, Angleterre

latitude: 52-48N, longitude: 002-40W, altitude: 76 m

Observation

Le bulletin a été fait il y a 1 heure et 27 minutes, à 07:50 UTC
Vent 3 kt de sud/sud-ouest
Température 5°C
Humidité 75%
Pression 1030 hPa
Visibilité 10 km ou plus

METAR: EGOS 170750Z AUTO 20003KT 9999 NCD 05/01 Q1030

Heure: 10:17 (09:17 UTC)

Prévision

Le bulletin a été fait il y a 22 heures et 41 minutes, à 10:36 UTC
Prévision valable du 16 à 12 UTC au 16 à 17 UTC
Vent 5 kt de direction variable
Visibilité 10 km ou plus
pas de nuages en-dessous de 1500 mètres et pas de cumulonimbus.

TAF: EGOS 161036Z 1612/1617 VRB05KT CAVOK

Observations et prévisions météorologiques de plus de 4000 aéroports (messages METAR et TAF).

Les stations disponibles sont représentées par des disques jaunes et rouges sur la carte.

Passer la souris dessus pour voir le nom de la station.

Cliquer dessus pour voir les observations et prévisions météorologiques.

Pour changer de carte: cliquez sur les boutons verts avec une croix noire pour zoomer, sur le bouton vert avec un tiret pour effectuer un zoom arrière, ou sur les flèches vertes pour les cartes adjacentes.


METAR-TAF: